Time;durP1;ratioP1;P1;durP2;ratioP2;P2;SDS_P1;SDS_P2;PMS_P1;PMS_P2;Temp;Humidity;BMP_temperature;BMP_pressure;BME280_temperature;BME280_humidity;BME280_pressure;Samples;Min_cycle;Max_cycle;Signal;HPM_P1;HPM_P2
2023/10/11 00:00:33;;;;;;;9.30;2.33;;;;;;;;;;5073048;28;20516;-53
2023/10/11 00:03:05;;;;;;;8.17;4.10;;;;;;;;;;5073036;28;20447;-53
2023/10/11 00:05:36;;;;;;;4.90;2.83;;;;;;;;;;5073154;28;20535;-52
2023/10/11 00:08:07;;;;;;;7.57;2.73;;;;;;;;;;5072637;28;20974;-52
2023/10/11 00:10:42;;;;;;;4.60;2.20;;;;;;;;;;5072805;28;20480;-53
2023/10/11 00:13:10;;;;;;;4.23;2.10;;;;;;;;;;5070177;28;20447;-54
2023/10/11 00:15:37;;;;;;;6.13;2.20;;;;;;;;;;5072366;28;20448;-53
2023/10/11 00:18:05;;;;;;;3.50;2.10;;;;;;;;;;5072633;28;20469;-53
2023/10/11 00:20:47;;;;;;;6.57;2.70;;;;;;;;;;5072457;28;20500;-53
2023/10/11 00:23:17;;;;;;;6.80;3.10;;;;;;;;;;5072700;28;20443;-52
2023/10/11 00:25:45;;;;;;;11.33;3.27;;;;;;;;;;5067507;28;20535;-53
2023/10/11 00:28:14;;;;;;;10.93;2.77;;;;;;;;;;5072054;28;20910;-52
2023/10/11 00:30:46;;;;;;;7.20;2.57;;;;;;;;;;5072048;28;21018;-53
2023/10/11 00:33:14;;;;;;;5.80;2.80;;;;;;;;;;5072658;28;20459;-55
2023/10/11 00:35:47;;;;;;;6.10;2.90;;;;;;;;;;5072566;28;20509;-52
2023/10/11 00:38:18;;;;;;;5.03;2.00;;;;;;;;;;5072427;28;20468;-53
2023/10/11 00:40:47;;;;;;;5.73;2.60;;;;;;;;;;5072013;28;20449;-53
2023/10/11 00:43:19;;;;;;;4.77;2.60;;;;;;;;;;5072135;28;20452;-52
2023/10/11 00:45:48;;;;;;;7.60;2.23;;;;;;;;;;5072268;28;21004;-53
2023/10/11 00:48:19;;;;;;;4.47;2.33;;;;;;;;;;5071628;28;20511;-53
2023/10/11 00:50:49;;;;;;;4.80;2.43;;;;;;;;;;5071479;28;20488;-55
2023/10/11 00:53:17;;;;;;;4.97;2.60;;;;;;;;;;5071826;28;20954;-54
2023/10/11 00:55:45;;;;;;;4.37;2.10;;;;;;;;;;5072268;28;20445;-55
2023/10/11 00:58:17;;;;;;;6.13;2.50;;;;;;;;;;5072212;28;20602;-54
2023/10/11 01:00:45;;;;;;;5.73;2.23;;;;;;;;;;5072045;28;20498;-54
2023/10/11 01:03:13;;;;;;;5.27;2.40;;;;;;;;;;5071597;28;20501;-52
2023/10/11 01:05:44;;;;;;;5.60;3.23;;;;;;;;;;5071914;28;20448;-53
2023/10/11 01:08:12;;;;;;;4.53;2.10;;;;;;;;;;5071846;28;20468;-54
2023/10/11 01:10:45;;;;;;;6.37;3.00;;;;;;;;;;5071677;28;20506;-55
2023/10/11 01:13:13;;;;;;;6.13;2.33;;;;;;;;;;5071727;28;20444;-53
2023/10/11 01:15:42;;;;;;;9.33;2.23;;;;;;;;;;5071266;28;21005;-52
2023/10/11 01:18:12;;;;;;;6.00;2.97;;;;;;;;;;5071659;28;20557;-54
2023/10/11 01:20:41;;;;;;;4.50;2.00;;;;;;;;;;5071475;28;20544;-52
2023/10/11 01:23:08;;;;;;;5.17;2.30;;;;;;;;;;5067880;28;20470;-52
2023/10/11 01:25:36;;;;;;;3.80;2.30;;;;;;;;;;5068673;28;20445;-55
2023/10/11 01:28:03;;;;;;;5.77;2.30;;;;;;;;;;5071258;28;20529;-52
2023/10/11 01:30:30;;;;;;;4.53;2.63;;;;;;;;;;5071482;28;20534;-52
2023/10/11 01:32:57;;;;;;;4.37;1.87;;;;;;;;;;5071028;28;20505;-52
2023/10/11 01:35:35;;;;;;;6.80;3.07;;;;;;;;;;5070665;28;20817;-51
2023/10/11 01:38:05;;;;;;;9.83;2.70;;;;;;;;;;5064353;28;20537;-54
2023/10/11 01:40:33;;;;;;;3.60;2.20;;;;;;;;;;5071713;28;20531;-53
2023/10/11 01:43:02;;;;;;;5.10;3.07;;;;;;;;;;5070969;28;20452;-53
2023/10/11 01:45:31;;;;;;;5.73;2.00;;;;;;;;;;5071016;28;20444;-53
2023/10/11 01:47:58;;;;;;;10.70;3.20;;;;;;;;;;5071047;28;20535;-53
2023/10/11 01:50:26;;;;;;;3.97;2.20;;;;;;;;;;5070786;28;20481;-52
2023/10/11 01:52:54;;;;;;;7.00;2.20;;;;;;;;;;5070935;28;21390;-52
2023/10/11 01:55:23;;;;;;;5.83;2.60;;;;;;;;;;5069237;28;20472;-50
2023/10/11 01:57:50;;;;;;;8.97;3.03;;;;;;;;;;5070660;28;20464;-52
2023/10/11 02:00:23;;;;;;;4.20;2.10;;;;;;;;;;5070411;28;20440;-53
2023/10/11 02:02:55;;;;;;;3.97;2.13;;;;;;;;;;5070596;28;20453;-53
2023/10/11 02:05:22;;;;;;;5.03;2.43;;;;;;;;;;5071007;28;20452;-52
2023/10/11 02:07:50;;;;;;;4.97;2.53;;;;;;;;;;5070324;28;20522;-54
2023/10/11 02:10:25;;;;;;;5.50;2.30;;;;;;;;;;5070316;28;20982;-53
2023/10/11 02:12:56;;;;;;;5.53;2.50;;;;;;;;;;5069456;28;20452;-53
2023/10/11 02:15:28;;;;;;;4.90;2.30;;;;;;;;;;5070719;28;20444;-53
2023/10/11 02:17:55;;;;;;;5.50;1.97;;;;;;;;;;5069589;28;20468;-53
2023/10/11 02:20:22;;;;;;;8.23;2.70;;;;;;;;;;5070102;28;20441;-53
2023/10/11 02:22:51;;;;;;;8.80;2.70;;;;;;;;;;5070037;28;20935;-51
2023/10/11 02:25:20;;;;;;;9.53;2.80;;;;;;;;;;5070495;28;20476;-52
2023/10/11 02:27:49;;;;;;;5.97;2.37;;;;;;;;;;5070300;28;20892;-52
2023/10/11 02:30:22;;;;;;;7.10;3.00;;;;;;;;;;5070200;28;20480;-52
2023/10/11 02:32:50;;;;;;;7.50;2.70;;;;;;;;;;5069604;28;20463;-53
2023/10/11 02:35:18;;;;;;;5.20;2.37;;;;;;;;;;5070574;28;20445;-52
2023/10/11 02:37:46;;;;;;;8.13;1.97;;;;;;;;;;5070118;28;20464;-53
2023/10/11 02:40:16;;;;;;;4.93;2.47;;;;;;;;;;5070754;28;20816;-52
2023/10/11 02:42:45;;;;;;;4.77;2.03;;;;;;;;;;5070197;28;20531;-53
2023/10/11 02:45:13;;;;;;;4.90;2.07;;;;;;;;;;5069160;28;20441;-52
2023/10/11 02:47:42;;;;;;;5.73;2.40;;;;;;;;;;5065272;28;21032;-52
2023/10/11 02:50:09;;;;;;;7.13;2.80;;;;;;;;;;5070268;28;20444;-52
2023/10/11 02:52:37;;;;;;;7.13;2.30;;;;;;;;;;5069485;28;20609;-53
2023/10/11 02:55:16;;;;;;;3.70;2.10;;;;;;;;;;5070070;28;20997;-53
2023/10/11 02:57:43;;;;;;;6.73;2.37;;;;;;;;;;5069925;28;20529;-52
2023/10/11 03:00:21;;;;;;;9.23;2.50;;;;;;;;;;5069563;28;20451;-53
2023/10/11 03:02:55;;;;;;;4.90;2.17;;;;;;;;;;5069081;28;20506;-53
2023/10/11 03:05:27;;;;;;;9.23;2.43;;;;;;;;;;5069413;28;20451;-53
2023/10/11 03:07:58;;;;;;;9.70;3.40;;;;;;;;;;5070026;28;20571;-53
2023/10/11 03:10:30;;;;;;;6.27;2.50;;;;;;;;;;5069829;28;20471;-53
2023/10/11 03:12:57;;;;;;;7.57;2.20;;;;;;;;;;5069694;28;20825;-52
2023/10/11 03:15:25;;;;;;;6.77;2.50;;;;;;;;;;5072262;28;20440;-52
2023/10/11 03:17:54;;;;;;;3.50;2.13;;;;;;;;;;5071424;28;20824;-53
2023/10/11 03:20:30;;;;;;;8.10;2.60;;;;;;;;;;5069605;28;20444;-53
2023/10/11 03:22:59;;;;;;;6.10;2.90;;;;;;;;;;5073763;28;20459;-52
2023/10/11 03:25:29;;;;;;;6.30;2.53;;;;;;;;;;5073919;28;21043;-53
2023/10/11 03:27:57;;;;;;;5.23;2.43;;;;;;;;;;5073547;28;20468;-52
2023/10/11 03:30:24;;;;;;;6.00;2.23;;;;;;;;;;5073695;28;20957;-53
2023/10/11 03:32:52;;;;;;;7.40;3.20;;;;;;;;;;5072755;28;21001;-53
2023/10/11 03:35:25;;;;;;;4.90;2.40;;;;;;;;;;5073979;28;20502;-53
2023/10/11 03:37:58;;;;;;;6.73;2.07;;;;;;;;;;5073710;28;20521;-52
2023/10/11 03:40:34;;;;;;;10.83;2.60;;;;;;;;;;5066382;28;20527;-53
2023/10/11 03:43:03;;;;;;;7.20;2.30;;;;;;;;;;5072521;28;20450;-53
2023/10/11 03:45:34;;;;;;;7.77;2.87;;;;;;;;;;5072870;28;20495;-53
2023/10/11 03:48:09;;;;;;;6.33;3.30;;;;;;;;;;5073135;28;20977;-53
2023/10/11 03:50:37;;;;;;;5.77;2.97;;;;;;;;;;5072981;28;20475;-53
2023/10/11 03:53:10;;;;;;;5.30;2.80;;;;;;;;;;5072633;28;20451;-52
2023/10/11 03:55:45;;;;;;;10.77;3.07;;;;;;;;;;5072597;28;21001;-52
2023/10/11 03:58:15;;;;;;;4.83;2.43;;;;;;;;;;5073377;28;20467;-52
2023/10/11 04:00:47;;;;;;;4.50;1.93;;;;;;;;;;5072776;28;20510;-54
2023/10/11 04:03:17;;;;;;;7.83;2.37;;;;;;;;;;5072801;28;20448;-52
2023/10/11 04:05:47;;;;;;;3.83;2.20;;;;;;;;;;5073199;28;21062;-52
2023/10/11 04:08:21;;;;;;;6.20;2.50;;;;;;;;;;5073017;28;20468;-53
2023/10/11 04:10:49;;;;;;;5.27;2.33;;;;;;;;;;5069251;28;20577;-53
2023/10/11 04:13:24;;;;;;;5.97;2.13;;;;;;;;;;5067801;28;20966;-52
2023/10/11 04:15:52;;;;;;;6.63;2.50;;;;;;;;;;5072675;28;20448;-53
2023/10/11 04:18:33;;;;;;;3.73;1.90;;;;;;;;;;5073092;28;20553;-53
2023/10/11 04:21:25;;;;;;;4.87;1.97;;;;;;;;;;5072776;28;20540;-53
2023/10/11 04:23:55;;;;;;;3.40;1.73;;;;;;;;;;5072552;28;20448;-53
2023/10/11 04:29:16;;;;;;;6.20;2.10;;;;;;;;;;5066109;28;20437;-52
2023/10/11 04:31:54;;;;;;;5.07;1.77;;;;;;;;;;5071073;28;20476;-52
2023/10/11 04:34:23;;;;;;;5.90;1.90;;;;;;;;;;5072602;28;20531;-53
2023/10/11 04:36:55;;;;;;;7.40;2.33;;;;;;;;;;5072193;28;20468;-53
2023/10/11 04:39:28;;;;;;;4.83;2.10;;;;;;;;;;5072618;28;20551;-52
2023/10/11 04:41:57;;;;;;;10.20;2.47;;;;;;;;;;5066923;28;21010;-53
2023/10/11 04:44:30;;;;;;;4.47;1.90;;;;;;;;;;5072068;28;20455;-52
2023/10/11 04:46:58;;;;;;;5.83;2.27;;;;;;;;;;5071933;28;20559;-53
2023/10/11 04:49:26;;;;;;;4.07;2.23;;;;;;;;;;5072030;28;20535;-53
2023/10/11 04:51:56;;;;;;;8.60;4.00;;;;;;;;;;5067474;28;21061;-54
2023/10/11 04:54:35;;;;;;;3.20;1.53;;;;;;;;;;5070534;28;20444;-52
2023/10/11 04:57:07;;;;;;;3.63;2.13;;;;;;;;;;5065355;28;20468;-52
2023/10/11 04:59:39;;;;;;;6.63;1.97;;;;;;;;;;5071867;28;20451;-52
2023/10/11 05:02:16;;;;;;;5.47;2.37;;;;;;;;;;5066664;28;20432;-52
2023/10/11 05:04:44;;;;;;;5.00;2.20;;;;;;;;;;5071444;28;20527;-52
2023/10/11 05:07:14;;;;;;;3.97;1.93;;;;;;;;;;5061787;28;20483;-53
2023/10/11 05:09:41;;;;;;;4.07;1.70;;;;;;;;;;5060140;28;20447;-52
2023/10/11 05:12:10;;;;;;;4.83;1.90;;;;;;;;;;5071271;28;20525;-53
2023/10/11 05:14:40;;;;;;;6.20;1.90;;;;;;;;;;5064652;28;20471;-52
2023/10/11 05:17:31;;;;;;;5.70;2.40;;;;;;;;;;5059821;28;20473;-53
2023/10/11 05:20:20;;;;;;;6.30;2.30;;;;;;;;;;5059397;28;20852;-52
2023/10/11 05:22:52;;;;;;;3.83;2.17;;;;;;;;;;5059324;28;20916;-52
2023/10/11 05:31:01;;;;;;;4.10;1.90;;;;;;;;;;5110543;28;20827;-54
2023/10/11 05:33:41;;;;;;;4.67;2.07;;;;;;;;;;5110675;28;20442;-54
2023/10/11 05:36:17;;;;;;;5.90;1.97;;;;;;;;;;5112035;28;21003;-55
2023/10/11 05:52:29;;;;;;;4.23;3.20;;;;;;;;;;5090093;28;20891;-53
2023/10/11 05:54:59;;;;;;;4.83;2.70;;;;;;;;;;5090314;28;20439;-55
2023/10/11 05:57:28;;;;;;;3.50;2.23;;;;;;;;;;5091010;28;20475;-55
2023/10/11 05:59:56;;;;;;;6.00;2.10;;;;;;;;;;5089671;28;20447;-54
2023/10/11 06:02:23;;;;;;;4.07;1.90;;;;;;;;;;5089365;28;20467;-54
2023/10/11 06:04:50;;;;;;;3.63;1.83;;;;;;;;;;5089128;28;20570;-55
2023/10/11 06:07:20;;;;;;;3.70;1.97;;;;;;;;;;5090594;28;20470;-53
2023/10/11 06:09:52;;;;;;;4.03;1.83;;;;;;;;;;5094879;28;20447;-55
2023/10/11 06:12:26;;;;;;;9.83;2.20;;;;;;;;;;5089539;28;20525;-52
2023/10/11 06:14:54;;;;;;;5.67;1.90;;;;;;;;;;5090500;28;20444;-53
2023/10/11 06:17:22;;;;;;;5.40;1.70;;;;;;;;;;5090633;28;20526;-55
2023/10/11 06:19:55;;;;;;;4.00;2.03;;;;;;;;;;5091107;28;21001;-56
2023/10/11 06:22:28;;;;;;;4.93;1.93;;;;;;;;;;5085893;28;20471;-56
2023/10/11 06:24:58;;;;;;;5.07;2.10;;;;;;;;;;5089762;28;20783;-55
2023/10/11 06:30:21;;;;;;;5.97;1.80;;;;;;;;;;5048413;28;20477;-55
2023/10/11 06:32:50;;;;;;;5.27;2.30;;;;;;;;;;5087023;28;20536;-54
2023/10/11 06:35:23;;;;;;;5.77;2.50;;;;;;;;;;5094531;28;20431;-54
2023/10/11 06:37:52;;;;;;;4.87;2.33;;;;;;;;;;5088854;28;20548;-54
2023/10/11 06:40:19;;;;;;;3.30;1.80;;;;;;;;;;5089557;28;20479;-53
2023/10/11 06:42:53;;;;;;;5.40;2.10;;;;;;;;;;5087975;28;20444;-53
2023/10/11 06:45:20;;;;;;;7.10;2.97;;;;;;;;;;5091246;28;20449;-53
2023/10/11 06:47:50;;;;;;;5.93;2.50;;;;;;;;;;5090012;28;20820;-55
2023/10/11 06:50:17;;;;;;;4.20;2.10;;;;;;;;;;5088995;28;20470;-54
2023/10/11 06:52:45;;;;;;;9.10;2.73;;;;;;;;;;5089817;28;20566;-56
2023/10/11 06:55:18;;;;;;;6.03;2.23;;;;;;;;;;5089755;28;20497;-54
2023/10/11 06:57:51;;;;;;;6.50;2.50;;;;;;;;;;5091079;28;20497;-54
2023/10/11 07:00:23;;;;;;;6.20;2.40;;;;;;;;;;5089336;28;20451;-53
2023/10/11 07:02:52;;;;;;;6.23;2.63;;;;;;;;;;5089503;28;20934;-55
2023/10/11 07:05:20;;;;;;;9.70;2.63;;;;;;;;;;5089838;28;20454;-53
2023/10/11 07:07:52;;;;;;;8.93;3.03;;;;;;;;;;5089428;28;20459;-54
2023/10/11 07:10:32;;;;;;;6.43;2.73;;;;;;;;;;5089508;28;20838;-53
2023/10/11 07:13:07;;;;;;;5.40;3.13;;;;;;;;;;5089683;28;20536;-54
2023/10/11 07:15:43;;;;;;;5.50;3.20;;;;;;;;;;5090223;28;20495;-54
2023/10/11 07:18:11;;;;;;;4.10;2.13;;;;;;;;;;5089845;28;20459;-53
2023/10/11 07:20:58;;;;;;;4.00;2.47;;;;;;;;;;5090025;28;20500;-53
2023/10/11 07:23:34;;;;;;;5.30;2.80;;;;;;;;;;5089725;28;21022;-54
2023/10/11 07:26:22;;;;;;;5.70;2.57;;;;;;;;;;5089898;28;20443;-55
2023/10/11 07:28:50;;;;;;;5.97;3.23;;;;;;;;;;5090049;28;20476;-53
2023/10/11 07:31:19;;;;;;;3.93;2.53;;;;;;;;;;5088967;28;20439;-54
2023/10/11 07:33:49;;;;;;;6.47;2.50;;;;;;;;;;5089685;28;20448;-54
2023/10/11 07:36:18;;;;;;;5.93;2.00;;;;;;;;;;5088816;28;20526;-55
2023/10/11 07:38:54;;;;;;;6.77;2.07;;;;;;;;;;5089634;28;20441;-54
2023/10/11 07:41:22;;;;;;;5.60;2.50;;;;;;;;;;5089118;28;20439;-54
2023/10/11 07:43:49;;;;;;;3.07;2.10;;;;;;;;;;5089251;28;20909;-54
2023/10/11 07:46:17;;;;;;;7.37;2.63;;;;;;;;;;5087793;28;20933;-55
2023/10/11 07:48:46;;;;;;;5.87;2.07;;;;;;;;;;5087988;28;20538;-53
2023/10/11 07:51:13;;;;;;;3.63;1.87;;;;;;;;;;5086982;28;20447;-55
2023/10/11 07:53:41;;;;;;;4.73;2.00;;;;;;;;;;5090219;28;20475;-53
2023/10/11 07:56:09;;;;;;;4.80;2.00;;;;;;;;;;5089349;28;20526;-53
2023/10/11 07:58:44;;;;;;;5.30;1.70;;;;;;;;;;5089320;28;20468;-52
2023/10/11 08:01:30;;;;;;;4.80;2.20;;;;;;;;;;5089914;28;20470;-54
2023/10/11 08:03:59;;;;;;;6.73;2.47;;;;;;;;;;5092044;28;20454;-54
2023/10/11 08:06:27;;;;;;;3.53;2.10;;;;;;;;;;5092658;28;20496;-54
2023/10/11 08:08:59;;;;;;;12.17;6.53;;;;;;;;;;5092956;28;20439;-54
2023/10/11 08:11:28;;;;;;;11.37;5.57;;;;;;;;;;5092138;28;20455;-53
2023/10/11 08:14:00;;;;;;;9.33;4.07;;;;;;;;;;5091621;28;20443;-55
2023/10/11 08:16:28;;;;;;;13.60;4.07;;;;;;;;;;5092638;28;20439;-55
2023/10/11 08:18:55;;;;;;;8.17;3.90;;;;;;;;;;5092003;28;20945;-55
2023/10/11 08:21:24;;;;;;;15.83;4.10;;;;;;;;;;5092311;28;20917;-54
2023/10/11 08:23:51;;;;;;;4.73;3.07;;;;;;;;;;5092649;28;20488;-54
2023/10/11 08:26:21;;;;;;;6.10;4.40;;;;;;;;;;5092096;28;20439;-54
2023/10/11 08:28:48;;;;;;;10.13;2.80;;;;;;;;;;5092310;28;20487;-54
2023/10/11 08:31:29;;;;;;;4.43;2.53;;;;;;;;;;5089457;28;20523;-54
2023/10/11 08:33:56;;;;;;;5.60;2.77;;;;;;;;;;5092029;28;20826;-52
2023/10/11 08:36:29;;;;;;;3.87;2.10;;;;;;;;;;5096662;28;20439;-52
2023/10/11 08:38:59;;;;;;;6.80;2.57;;;;;;;;;;5092381;28;20436;-52
2023/10/11 08:41:26;;;;;;;4.03;2.30;;;;;;;;;;5092103;28;20468;-52
2023/10/11 08:43:57;;;;;;;5.20;2.23;;;;;;;;;;5092140;28;20493;-53
2023/10/11 08:46:28;;;;;;;4.83;2.40;;;;;;;;;;5091243;28;20458;-53
2023/10/11 08:48:55;;;;;;;5.53;3.03;;;;;;;;;;5091318;28;21159;-52
2023/10/11 08:51:22;;;;;;;5.27;3.20;;;;;;;;;;5091535;28;20439;-53
2023/10/11 08:53:54;;;;;;;4.30;2.00;;;;;;;;;;5090292;28;20524;-53
2023/10/11 08:56:23;;;;;;;4.90;1.90;;;;;;;;;;5091211;28;20451;-53
2023/10/11 08:58:53;;;;;;;4.73;1.63;;;;;;;;;;5091995;28;20482;-53
2023/10/11 09:01:24;;;;;;;4.23;2.70;;;;;;;;;;5091788;28;20447;-53
2023/10/11 09:04:07;;;;;;;3.00;1.93;;;;;;;;;;5087910;28;21159;-53
2023/10/11 09:06:36;;;;;;;4.40;2.10;;;;;;;;;;5086014;28;20448;-53
2023/10/11 09:09:05;;;;;;;3.70;2.00;;;;;;;;;;5091903;28;20475;-54
2023/10/11 09:11:32;;;;;;;6.97;2.43;;;;;;;;;;5090900;28;20432;-53
2023/10/11 09:14:11;;;;;;;5.03;2.30;;;;;;;;;;5094196;28;21051;-53
2023/10/11 09:16:39;;;;;;;7.17;2.20;;;;;;;;;;5090606;28;20483;-52
2023/10/11 09:19:09;;;;;;;6.97;2.33;;;;;;;;;;5091931;28;20999;-53
2023/10/11 09:21:35;;;;;;;9.80;5.40;;;;;;;;;;5088109;28;20452;-53
2023/10/11 09:24:03;;;;;;;3.80;2.20;;;;;;;;;;5090570;28;20432;-52
2023/10/11 09:26:37;;;;;;;5.10;2.37;;;;;;;;;;5099576;28;20443;-53
2023/10/11 09:29:05;;;;;;;7.33;2.37;;;;;;;;;;5091280;28;20439;-52
2023/10/11 09:31:33;;;;;;;6.10;2.73;;;;;;;;;;5094952;28;20819;-53
2023/10/11 09:34:03;;;;;;;7.27;2.33;;;;;;;;;;5090410;28;20475;-52
2023/10/11 09:36:31;;;;;;;6.60;2.53;;;;;;;;;;5091428;28;20452;-53
2023/10/11 09:38:59;;;;;;;5.67;2.60;;;;;;;;;;5090762;28;20504;-53
2023/10/11 09:41:28;;;;;;;6.50;2.60;;;;;;;;;;5090282;28;20455;-53
2023/10/11 09:43:58;;;;;;;6.57;2.60;;;;;;;;;;5090322;28;20447;-53
2023/10/11 09:46:29;;;;;;;5.77;2.00;;;;;;;;;;5092541;28;20535;-53
2023/10/11 09:48:57;;;;;;;4.53;2.70;;;;;;;;;;5088596;28;20940;-53
2023/10/11 09:51:25;;;;;;;3.53;1.90;;;;;;;;;;5086514;28;20534;-53
2023/10/11 09:53:53;;;;;;;6.57;2.57;;;;;;;;;;5088042;28;21048;-54
2023/10/11 09:56:35;;;;;;;3.83;1.90;;;;;;;;;;5092864;28;20451;-53
2023/10/11 09:59:08;;;;;;;5.30;2.47;;;;;;;;;;5089841;28;20445;-54
2023/10/11 10:01:39;;;;;;;4.60;2.07;;;;;;;;;;5087418;28;20504;-52
2023/10/11 10:04:09;;;;;;;3.17;1.90;;;;;;;;;;5090673;28;20440;-53
2023/10/11 10:06:37;;;;;;;7.13;2.27;;;;;;;;;;5089075;28;20494;-54
2023/10/11 10:09:24;;;;;;;4.60;2.37;;;;;;;;;;5088008;28;20810;-54
2023/10/11 10:12:10;;;;;;;7.80;2.33;;;;;;;;;;5092075;28;20526;-53
2023/10/11 10:14:41;;;;;;;5.20;1.90;;;;;;;;;;5090195;28;20522;-53
2023/10/11 10:17:10;;;;;;;6.90;2.27;;;;;;;;;;5090621;28;20471;-54
2023/10/11 10:19:39;;;;;;;5.43;3.13;;;;;;;;;;5089616;28;20447;-53
2023/10/11 10:22:15;;;;;;;4.20;1.70;;;;;;;;;;5089628;28;20523;-52
2023/10/11 10:24:43;;;;;;;6.57;2.63;;;;;;;;;;5091671;28;20563;-53
2023/10/11 10:27:33;;;;;;;6.63;2.47;;;;;;;;;;5092846;28;21027;-53
2023/10/11 10:30:03;;;;;;;4.27;1.87;;;;;;;;;;5085312;28;20474;-53
2023/10/11 10:32:30;;;;;;;6.27;2.60;;;;;;;;;;5077578;28;20445;-54
2023/10/11 10:35:26;;;;;;;6.57;2.60;;;;;;;;;;5079511;28;20440;-54
2023/10/11 10:37:55;;;;;;;7.83;2.77;;;;;;;;;;5077371;28;20529;-53
2023/10/11 10:40:25;;;;;;;4.87;2.80;;;;;;;;;;5075957;28;20472;-53
2023/10/11 10:43:14;;;;;;;4.77;2.27;;;;;;;;;;5079152;28;20988;-53
2023/10/11 10:45:42;;;;;;;6.23;2.30;;;;;;;;;;5081876;28;20492;-55
2023/10/11 10:48:14;;;;;;;3.80;2.17;;;;;;;;;;5081092;28;20988;-54
2023/10/11 10:50:48;;;;;;;6.30;3.43;;;;;;;;;;5089649;28;20439;-54
2023/10/11 10:53:15;;;;;;;4.77;2.03;;;;;;;;;;5088224;28;20475;-53
2023/10/11 10:55:42;;;;;;;4.30;2.00;;;;;;;;;;5091300;28;20522;-52
2023/10/11 10:58:15;;;;;;;5.17;2.20;;;;;;;;;;5089499;28;20459;-53
2023/10/11 11:00:43;;;;;;;7.10;2.30;;;;;;;;;;5087474;28;20451;-53
2023/10/11 11:03:18;;;;;;;5.20;2.17;;;;;;;;;;5092503;28;20448;-53
2023/10/11 11:05:56;;;;;;;5.57;2.73;;;;;;;;;;5088488;28;20529;-53
2023/10/11 11:08:28;;;;;;;5.10;2.60;;;;;;;;;;5088535;28;20466;-53
2023/10/11 11:11:00;;;;;;;3.57;2.00;;;;;;;;;;5083806;28;20450;-54
2023/10/11 11:13:30;;;;;;;4.73;2.47;;;;;;;;;;5092416;28;20471;-53
2023/10/11 11:15:58;;;;;;;7.40;3.10;;;;;;;;;;5087531;28;20482;-53
2023/10/11 11:18:36;;;;;;;4.93;2.17;;;;;;;;;;5088461;28;20460;-53
2023/10/11 11:21:18;;;;;;;8.40;2.77;;;;;;;;;;5084811;28;20443;-54
2023/10/11 11:23:49;;;;;;;4.63;2.47;;;;;;;;;;5088034;28;20447;-53
2023/10/11 11:26:15;;;;;;;4.73;2.67;;;;;;;;;;5088885;28;20447;-53
2023/10/11 11:28:43;;;;;;;9.10;2.70;;;;;;;;;;5083597;22;20483;-91
2023/10/11 11:31:13;;;;;;;4.93;2.30;;;;;;;;;;5071287;28;20428;-91
2023/10/11 11:34:05;;;;;;;6.50;2.50;;;;;;;;;;5062682;28;20477;-91
2023/10/11 11:36:31;;;;;;;7.87;2.60;;;;;;;;;;5044448;28;20449;-90
2023/10/11 11:39:17;;;;;;;21.17;4.33;;;;;;;;;;5052916;28;20437;-90
2023/10/11 11:44:19;;;;;;;5.00;2.60;;;;;;;;;;5071039;28;20488;-54
2023/10/11 11:46:49;;;;;;;5.57;2.87;;;;;;;;;;5071418;28;20448;-56
2023/10/11 11:49:17;;;;;;;6.60;2.53;;;;;;;;;;5052745;28;20453;-55
2023/10/11 11:51:44;;;;;;;5.97;2.67;;;;;;;;;;5051775;28;20483;-55
2023/10/11 11:54:17;;;;;;;5.50;2.40;;;;;;;;;;5051563;28;20472;-55
2023/10/11 11:56:45;;;;;;;5.13;2.50;;;;;;;;;;5052847;28;20955;-54
2023/10/11 11:59:17;;;;;;;7.53;2.70;;;;;;;;;;5051567;28;20449;-55
2023/10/11 12:01:45;;;;;;;4.93;2.50;;;;;;;;;;5049690;28;20507;-54
2023/10/11 12:04:13;;;;;;;3.90;2.13;;;;;;;;;;5052730;28;20469;-55
2023/10/11 12:06:41;;;;;;;6.10;2.50;;;;;;;;;;5052647;28;21117;-54
2023/10/11 12:09:17;;;;;;;5.00;2.53;;;;;;;;;;5053574;28;20831;-55
2023/10/11 12:11:45;;;;;;;3.47;2.07;;;;;;;;;;5051742;28;20571;-55
2023/10/11 12:14:13;;;;;;;4.93;2.43;;;;;;;;;;5050910;28;20970;-54
2023/10/11 12:16:42;;;;;;;5.00;2.50;;;;;;;;;;5051917;28;20445;-55
2023/10/11 12:19:11;;;;;;;7.50;2.07;;;;;;;;;;5052003;28;20532;-55
2023/10/11 12:21:40;;;;;;;5.33;2.67;;;;;;;;;;5051543;28;20842;-55
2023/10/11 12:24:11;;;;;;;7.07;2.47;;;;;;;;;;5051507;28;20502;-53
2023/10/11 12:26:41;;;;;;;4.77;2.47;;;;;;;;;;5052361;28;20449;-53
2023/10/11 12:29:09;;;;;;;5.50;2.20;;;;;;;;;;5052316;28;20787;-55
2023/10/11 12:31:38;;;;;;;7.23;3.60;;;;;;;;;;5051783;28;20480;-54
2023/10/11 12:34:08;;;;;;;9.33;2.30;;;;;;;;;;5052316;28;21082;-53
2023/10/11 12:36:38;;;;;;;8.00;3.53;;;;;;;;;;5050080;28;20441;-53
2023/10/11 12:39:08;;;;;;;3.23;1.93;;;;;;;;;;5052088;28;20990;-54
2023/10/11 12:41:36;;;;;;;5.67;2.20;;;;;;;;;;5051884;28;20449;-55
2023/10/11 12:44:07;;;;;;;6.10;2.23;;;;;;;;;;5048364;28;20445;-53
2023/10/11 12:46:34;;;;;;;5.07;2.70;;;;;;;;;;5049297;28;20532;-54
2023/10/11 12:49:12;;;;;;;9.33;2.63;;;;;;;;;;5051504;28;20891;-53
2023/10/11 12:51:41;;;;;;;5.60;2.50;;;;;;;;;;5051986;28;20445;-53
2023/10/11 12:54:11;;;;;;;5.70;2.70;;;;;;;;;;5052232;28;20843;-53
2023/10/11 12:56:39;;;;;;;6.30;2.47;;;;;;;;;;5051867;28;20485;-53
2023/10/11 12:59:12;;;;;;;6.07;2.53;;;;;;;;;;5051781;28;20951;-53
2023/10/11 13:01:42;;;;;;;4.93;2.07;;;;;;;;;;5051382;28;20461;-55
2023/10/11 13:04:17;;;;;;;4.20;2.50;;;;;;;;;;5051727;28;20445;-54
2023/10/11 13:06:49;;;;;;;8.10;2.47;;;;;;;;;;5051578;28;20464;-53
2023/10/11 13:09:21;;;;;;;6.43;3.10;;;;;;;;;;5052268;28;20873;-54
2023/10/11 13:11:49;;;;;;;4.40;2.60;;;;;;;;;;5051204;28;20575;-53
2023/10/11 13:14:18;;;;;;;5.77;2.30;;;;;;;;;;5051934;28;20574;-54
2023/10/11 13:16:47;;;;;;;4.37;2.60;;;;;;;;;;5051417;28;20524;-53
2023/10/11 13:19:18;;;;;;;5.13;2.60;;;;;;;;;;5051439;28;20451;-54
2023/10/11 13:21:46;;;;;;;3.60;2.60;;;;;;;;;;5050942;28;20453;-54
2023/10/11 13:24:13;;;;;;;4.13;2.50;;;;;;;;;;5051372;28;20473;-55
2023/10/11 13:26:43;;;;;;;6.70;2.70;;;;;;;;;;5051036;28;20868;-56
2023/10/11 13:29:12;;;;;;;4.47;2.50;;;;;;;;;;5051262;28;20923;-53
2023/10/11 13:31:40;;;;;;;6.30;2.47;;;;;;;;;;5050695;28;20757;-53
2023/10/11 13:34:08;;;;;;;7.27;2.50;;;;;;;;;;5051149;28;20568;-53
2023/10/11 13:36:35;;;;;;;5.83;2.50;;;;;;;;;;5051228;28;20467;-54
2023/10/11 13:39:03;;;;;;;5.93;2.90;;;;;;;;;;5051108;28;20515;-54
2023/10/11 13:41:31;;;;;;;3.90;2.07;;;;;;;;;;5050598;28;20472;-54
2023/10/11 13:44:01;;;;;;;4.63;2.07;;;;;;;;;;5050567;28;20456;-55
2023/10/11 13:46:28;;;;;;;6.60;2.20;;;;;;;;;;5050686;28;20464;-56
2023/10/11 13:49:08;;;;;;;4.00;2.40;;;;;;;;;;5050826;28;20958;-53
2023/10/11 13:51:36;;;;;;;8.30;2.37;;;;;;;;;;5050744;28;20445;-56
2023/10/11 13:54:18;;;;;;;7.93;2.27;;;;;;;;;;5050959;28;20484;-53
2023/10/11 13:56:45;;;;;;;6.47;2.50;;;;;;;;;;5050622;28;20445;-54
2023/10/11 13:59:21;;;;;;;6.67;2.63;;;;;;;;;;5051166;28;20764;-53
2023/10/11 14:01:59;;;;;;;5.50;2.47;;;;;;;;;;5050171;28;20456;-55
2023/10/11 14:04:47;;;;;;;4.80;2.27;;;;;;;;;;5050678;28;20449;-54
2023/10/11 14:07:23;;;;;;;7.40;2.63;;;;;;;;;;5050225;28;20579;-54
2023/10/11 14:09:53;;;;;;;7.67;2.57;;;;;;;;;;5050442;28;20870;-53
2023/10/11 14:12:24;;;;;;;4.97;2.20;;;;;;;;;;5050237;28;20987;-54
2023/10/11 14:14:53;;;;;;;4.63;2.30;;;;;;;;;;5050214;28;20513;-53
2023/10/11 14:17:24;;;;;;;5.93;2.70;;;;;;;;;;5050368;28;20508;-57
2023/10/11 14:19:52;;;;;;;4.70;2.97;;;;;;;;;;5050238;28;20452;-55
2023/10/11 14:22:19;;;;;;;5.10;2.10;;;;;;;;;;5050301;28;20544;-57
2023/10/11 14:24:48;;;;;;;7.67;2.50;;;;;;;;;;5050208;28;20927;-55
2023/10/11 14:27:17;;;;;;;5.23;2.37;;;;;;;;;;5050247;28;20539;-55
2023/10/11 14:29:45;;;;;;;5.97;2.17;;;;;;;;;;5049956;28;20552;-57
2023/10/11 14:32:16;;;;;;;4.90;2.60;;;;;;;;;;5049875;28;20449;-56
2023/10/11 14:34:45;;;;;;;7.20;2.53;;;;;;;;;;5050204;28;20485;-56
2023/10/11 14:37:13;;;;;;;9.10;3.23;;;;;;;;;;5050346;28;20465;-56
2023/10/11 14:39:47;;;;;;;6.70;3.10;;;;;;;;;;5049906;28;20456;-55
2023/10/11 14:42:15;;;;;;;7.20;3.00;;;;;;;;;;5049935;28;20515;-55
2023/10/11 14:44:42;;;;;;;5.30;3.70;;;;;;;;;;5049976;28;20444;-56
2023/10/11 14:47:10;;;;;;;9.50;3.97;;;;;;;;;;5050324;28;20524;-55
2023/10/11 14:49:39;;;;;;;7.17;2.80;;;;;;;;;;5049620;28;20560;-54
2023/10/11 14:52:07;;;;;;;5.33;2.60;;;;;;;;;;5049765;28;20481;-53
2023/10/11 14:54:35;;;;;;;5.75;2.28;;;;;;;;;;5048893;28;20773;-53
2023/10/11 14:57:03;;;;;;;3.83;2.10;;;;;;;;;;5049730;28;20206;-54
2023/10/11 14:59:34;;;;;;;6.20;2.80;;;;;;;;;;5049478;28;20503;-53
2023/10/11 15:02:02;;;;;;;6.03;2.93;;;;;;;;;;5049833;28;20445;-54
2023/10/11 15:04:29;;;;;;;5.60;2.40;;;;;;;;;;5049683;28;20437;-54
2023/10/11 15:06:58;;;;;;;6.20;2.90;;;;;;;;;;5049629;28;20457;-53
2023/10/11 15:09:32;;;;;;;5.53;2.27;;;;;;;;;;5049435;28;20800;-54
2023/10/11 15:12:00;;;;;;;3.30;2.10;;;;;;;;;;5052903;28;20467;-55
2023/10/11 15:14:27;;;;;;;9.90;2.73;;;;;;;;;;5053726;28;20524;-55
2023/10/11 15:16:58;;;;;;;4.37;2.10;;;;;;;;;;5053717;28;20978;-53
2023/10/11 15:19:25;;;;;;;6.00;2.60;;;;;;;;;;5053735;28;20441;-53
2023/10/11 15:21:53;;;;;;;5.30;2.37;;;;;;;;;;5053098;28;20440;-56
2023/10/11 15:24:23;;;;;;;4.23;2.07;;;;;;;;;;5053504;28;20451;-53
2023/10/11 15:26:50;;;;;;;7.20;2.60;;;;;;;;;;5054047;28;20437;-54
2023/10/11 15:29:18;;;;;;;4.10;2.00;;;;;;;;;;5053632;28;20520;-54
2023/10/11 15:31:45;;;;;;;5.77;3.17;;;;;;;;;;5053189;28;20923;-54